Time;durP1;ratioP1;P1;durP2;ratioP2;P2;SDS_P1;SDS_P2;PMS_P1;PMS_P2;Temp;Humidity;BMP_temperature;BMP_pressure;BME280_temperature;BME280_humidity;BME280_pressure;Samples;Min_cycle;Max_cycle;Signal;HPM_P1;HPM_P2
2023/07/24 00:02:05;;;;;;;3.13;2.90;;;22.50;78.10;;;;;;5031212;28;20176;-71
2023/07/24 00:04:31;;;;;;;3.45;3.22;;;22.50;78.20;;;;;;5033905;28;20177;-71
2023/07/24 00:06:57;;;;;;;2.92;2.75;;;22.40;78.10;;;;;;5036878;28;20233;-71
2023/07/24 00:09:23;;;;;;;3.22;2.97;;;22.40;78.10;;;;;;5030876;28;20181;-71
2023/07/24 00:11:49;;;;;;;3.10;2.80;;;22.40;78.30;;;;;;5027991;28;20666;-71
2023/07/24 00:14:17;;;;;;;3.35;3.13;;;22.30;78.30;;;;;;5030901;28;20186;-71
2023/07/24 00:16:43;;;;;;;3.17;2.88;;;22.30;78.10;;;;;;5030876;28;20188;-71
2023/07/24 00:19:09;;;;;;;3.00;2.70;;;22.20;78.60;;;;;;5030695;28;20763;-70
2023/07/24 00:21:34;;;;;;;3.28;2.97;;;22.20;78.80;;;;;;5036833;28;20194;-70
2023/07/24 00:24:00;;;;;;;3.60;3.30;;;22.10;79.30;;;;;;5022075;28;20274;-71
2023/07/24 00:26:26;;;;;;;3.92;3.13;;;22.10;79.50;;;;;;5030723;28;20176;-71
2023/07/24 00:28:51;;;;;;;2.72;2.53;;;22.10;79.70;;;;;;5030592;28;20173;-71
2023/07/24 00:31:17;;;;;;;2.85;2.75;;;22.00;80.00;;;;;;5033832;28;20869;-71
2023/07/24 00:33:42;;;;;;;3.20;2.88;;;22.00;80.00;;;;;;5030995;28;20172;-71
2023/07/24 00:36:08;;;;;;;2.90;2.70;;;22.00;79.90;;;;;;5030639;28;20612;-71
2023/07/24 00:38:34;;;;;;;3.58;3.10;;;22.00;80.10;;;;;;5030380;28;20180;-71
2023/07/24 00:41:00;;;;;;;3.65;2.85;;;21.90;80.10;;;;;;5026505;28;20180;-71
2023/07/24 00:43:25;;;;;;;2.67;2.58;;;21.90;80.60;;;;;;5030456;28;20681;-71
2023/07/24 00:45:51;;;;;;;2.47;2.35;;;21.90;80.40;;;;;;5030508;28;20688;-71
2023/07/24 00:48:17;;;;;;;4.25;3.00;;;21.80;80.50;;;;;;5030122;28;20188;-71
2023/07/24 00:50:44;;;;;;;4.28;3.13;;;21.80;80.40;;;;;;5022581;28;20212;-71
2023/07/24 00:53:11;;;;;;;2.92;2.72;;;21.80;80.60;;;;;;5032736;28;20230;-71
2023/07/24 00:55:38;;;;;;;3.15;2.85;;;21.80;80.30;;;;;;5031070;28;20261;-70
2023/07/24 00:58:04;;;;;;;2.63;2.47;;;21.70;80.30;;;;;;5024519;28;20299;-71
2023/07/24 01:00:30;;;;;;;3.55;2.83;;;21.70;80.40;;;;;;5028513;28;20183;-71
2023/07/24 01:02:57;;;;;;;2.88;2.78;;;21.70;80.40;;;;;;5029661;28;20188;-71
2023/07/24 01:05:25;;;;;;;3.13;2.28;;;21.70;80.60;;;;;;5027047;28;21382;-71
2023/07/24 01:07:54;;;;;;;8.98;3.20;;;21.60;80.30;;;;;;5029742;28;20184;-71
2023/07/24 01:10:20;;;;;;;3.03;2.78;;;21.60;80.50;;;;;;5029683;28;20646;-72
2023/07/24 01:13:00;;;;;;;3.80;2.97;;;21.60;80.70;;;;;;5026990;28;20180;-71
2023/07/24 01:15:36;;;;;;;5.60;2.83;;;21.50;80.10;;;;;;5020742;28;20251;-71
2023/07/24 01:18:08;;;;;;;3.10;2.55;;;21.50;80.00;;;;;;5030344;28;20211;-72
2023/07/24 01:20:42;;;;;;;3.13;2.85;;;21.40;80.40;;;;;;5029347;28;20233;-72
2023/07/24 01:23:30;;;;;;;2.92;2.72;;;21.40;80.50;;;;;;5029994;28;20632;-71
2023/07/24 01:26:02;;;;;;;4.00;3.00;;;21.40;80.50;;;;;;5025838;28;20204;-71
2023/07/24 01:28:28;;;;;;;2.45;2.33;;;21.40;80.70;;;;;;5023915;28;20679;-72
2023/07/24 01:30:55;;;;;;;2.97;2.78;;;21.30;81.00;;;;;;5030601;28;20217;-72
2023/07/24 01:33:21;;;;;;;2.28;2.17;;;21.30;81.00;;;;;;5033831;28;20200;-72
2023/07/24 01:35:58;;;;;;;3.05;2.78;;;21.30;81.20;;;;;;5022607;28;20194;-71
2023/07/24 01:38:25;;;;;;;3.20;2.97;;;21.20;81.20;;;;;;5027328;28;20180;-71
2023/07/24 01:40:53;;;;;;;3.25;2.72;;;21.20;81.10;;;;;;5028077;28;20263;-71
2023/07/24 01:43:19;;;;;;;3.92;3.05;;;21.20;81.40;;;;;;5029620;28;20184;-71
2023/07/24 01:45:44;;;;;;;4.93;2.80;;;21.20;81.40;;;;;;5029657;28;20583;-71
2023/07/24 01:48:10;;;;;;;3.15;2.95;;;21.20;81.60;;;;;;5025376;28;20257;-71
2023/07/24 01:50:36;;;;;;;3.53;2.50;;;21.10;81.50;;;;;;5017491;28;20693;-71
2023/07/24 01:53:02;;;;;;;3.05;2.85;;;21.10;81.50;;;;;;5030741;28;20242;-71
2023/07/24 01:55:27;;;;;;;3.33;3.10;;;21.10;81.70;;;;;;5027061;28;20180;-71
2023/07/24 01:57:53;;;;;;;3.33;2.72;;;21.10;82.00;;;;;;5023607;28;20192;-71
2023/07/24 02:00:19;;;;;;;3.28;2.97;;;21.00;82.00;;;;;;5024958;28;20189;-71
2023/07/24 02:02:44;;;;;;;4.57;2.92;;;20.90;81.70;;;;;;5026964;28;20180;-72
2023/07/24 02:05:10;;;;;;;2.80;2.70;;;20.90;81.60;;;;;;5029111;28;20204;-71
2023/07/24 02:07:36;;;;;;;2.80;2.55;;;20.90;81.90;;;;;;5023918;28;20236;-71
2023/07/24 02:10:02;;;;;;;2.72;2.55;;;20.80;81.70;;;;;;5029636;28;20218;-71
2023/07/24 02:12:27;;;;;;;2.70;2.50;;;20.80;81.80;;;;;;5034314;28;20186;-71
2023/07/24 02:14:54;;;;;;;2.85;2.58;;;20.80;81.80;;;;;;5029523;28;20181;-72
2023/07/24 02:17:20;;;;;;;3.10;2.72;;;20.80;82.00;;;;;;5038587;28;20187;-72
2023/07/24 02:19:45;;;;;;;3.22;2.97;;;20.70;82.00;;;;;;5024415;28;20577;-71
2023/07/24 02:22:11;;;;;;;3.33;2.78;;;20.70;82.10;;;;;;5029829;28;20546;-71
2023/07/24 02:24:37;;;;;;;2.42;2.33;;;20.70;82.10;;;;;;5033189;28;20704;-70
2023/07/24 02:27:04;;;;;;;2.63;2.42;;;20.70;82.20;;;;;;5028818;28;20201;-70
2023/07/24 02:29:30;;;;;;;6.03;3.15;;;20.70;82.30;;;;;;5032895;28;20188;-71
2023/07/24 02:31:57;;;;;;;2.60;2.40;;;20.70;82.00;;;;;;5036931;28;20224;-71
2023/07/24 02:34:25;;;;;;;2.63;2.53;;;20.70;82.00;;;;;;5036200;28;20605;-71
2023/07/24 02:36:52;;;;;;;2.80;2.60;;;20.70;81.90;;;;;;5033644;28;20183;-71
2023/07/24 02:39:17;;;;;;;2.20;2.10;;;20.70;81.90;;;;;;5028790;28;20184;-71
2023/07/24 02:41:43;;;;;;;2.83;2.72;;;20.70;81.80;;;;;;5031566;28;20179;-71
2023/07/24 02:44:09;;;;;;;2.70;2.50;;;20.70;82.00;;;;;;5033746;28;20180;-71
2023/07/24 02:46:34;;;;;;;3.50;2.85;;;20.60;82.00;;;;;;5033767;28;20185;-72
2023/07/24 02:49:00;;;;;;;2.63;2.50;;;20.60;82.10;;;;;;5024739;28;20177;-72
2023/07/24 02:51:25;;;;;;;2.95;2.80;;;20.60;82.00;;;;;;5031824;28;20212;-71
2023/07/24 02:53:53;;;;;;;3.47;2.95;;;20.60;82.20;;;;;;5032910;28;20180;-71
2023/07/24 02:56:20;;;;;;;3.15;2.70;;;20.60;82.30;;;;;;5032516;28;20188;-71
2023/07/24 02:58:46;;;;;;;2.97;2.78;;;20.60;82.20;;;;;;5031429;28;20215;-71
2023/07/24 03:01:13;;;;;;;3.03;2.90;;;20.50;82.40;;;;;;5032867;28;20184;-71
2023/07/24 03:03:39;;;;;;;2.53;2.35;;;20.50;82.70;;;;;;5037111;28;20178;-70
2023/07/24 03:06:05;;;;;;;2.50;2.38;;;20.50;82.60;;;;;;5039565;28;20733;-71
2023/07/24 03:08:31;;;;;;;4.40;3.47;;;20.50;82.20;;;;;;5030763;28;20180;-71
2023/07/24 03:10:57;;;;;;;3.63;2.90;;;20.50;82.10;;;;;;5036927;28;20312;-70
2023/07/24 03:13:23;;;;;;;3.40;3.10;;;20.50;82.10;;;;;;5032069;28;20658;-71
2023/07/24 03:15:53;;;;;;;3.83;2.80;;;20.50;82.10;;;;;;5030574;28;20189;-71
2023/07/24 03:18:19;;;;;;;6.18;3.45;;;20.40;81.60;;;;;;5033571;28;20655;-72
2023/07/24 03:20:45;;;;;;;2.92;2.72;;;20.40;82.10;;;;;;5030116;28;20176;-71
2023/07/24 03:23:10;;;;;;;2.72;2.50;;;20.40;82.30;;;;;;5013714;28;20185;-72
2023/07/24 03:25:36;;;;;;;3.03;2.65;;;20.40;82.40;;;;;;5032525;28;20183;-71
2023/07/24 03:28:02;;;;;;;3.25;3.05;;;20.40;82.50;;;;;;5029975;28;20204;-71
2023/07/24 03:30:28;;;;;;;3.10;2.50;;;20.40;82.40;;;;;;5029438;28;20216;-72
2023/07/24 03:32:53;;;;;;;2.53;2.42;;;20.40;82.50;;;;;;5032089;28;20181;-72
2023/07/24 03:35:19;;;;;;;2.65;2.45;;;20.40;82.60;;;;;;5036454;28;20192;-72
2023/07/24 03:37:45;;;;;;;2.97;2.80;;;20.30;82.50;;;;;;5034511;28;20187;-71
2023/07/24 03:40:11;;;;;;;3.42;3.13;;;20.40;82.60;;;;;;5026737;28;20775;-71
2023/07/24 03:42:37;;;;;;;3.45;3.13;;;20.30;82.80;;;;;;5053399;28;20187;-71
2023/07/24 03:45:03;;;;;;;2.58;2.42;;;20.30;82.60;;;;;;5031572;28;21492;-72
2023/07/24 03:47:29;;;;;;;3.03;2.63;;;20.30;82.90;;;;;;5032064;28;20180;-72
2023/07/24 03:49:55;;;;;;;2.80;2.60;;;20.30;82.80;;;;;;5031325;28;20243;-72
2023/07/24 03:52:20;;;;;;;2.88;2.67;;;20.30;83.10;;;;;;5034097;28;20171;-71
2023/07/24 03:54:46;;;;;;;3.28;2.50;;;20.30;83.00;;;;;;5030878;28;20191;-71
2023/07/24 03:57:12;;;;;;;3.03;2.83;;;20.30;83.20;;;;;;5034328;28;20560;-71
2023/07/24 03:59:37;;;;;;;2.92;2.72;;;20.30;83.20;;;;;;5031255;28;20189;-71
2023/07/24 04:02:04;;;;;;;3.22;3.03;;;20.30;83.30;;;;;;5027961;28;20643;-71
2023/07/24 04:04:29;;;;;;;3.33;3.10;;;20.30;83.50;;;;;;5032683;28;20180;-71
2023/07/24 04:06:55;;;;;;;3.47;3.17;;;20.30;83.70;;;;;;5028370;28;20239;-71
2023/07/24 04:09:20;;;;;;;2.78;2.60;;;20.20;83.80;;;;;;5033314;28;20207;-71
2023/07/24 04:11:46;;;;;;;2.90;2.75;;;20.20;83.90;;;;;;5029405;28;20216;-71
2023/07/24 04:14:12;;;;;;;2.92;2.72;;;20.20;84.00;;;;;;5028768;28;20187;-71
2023/07/24 04:16:37;;;;;;;3.00;2.90;;;20.20;83.90;;;;;;5029978;28;20180;-71
2023/07/24 04:19:03;;;;;;;3.97;2.58;;;20.20;83.90;;;;;;5029641;28;20191;-71
2023/07/24 04:21:29;;;;;;;3.00;2.78;;;20.20;83.70;;;;;;5026970;28;20188;-71
2023/07/24 04:23:55;;;;;;;5.40;3.00;;;20.20;83.90;;;;;;5028054;28;20237;-71
2023/07/24 04:26:20;;;;;;;4.43;3.47;;;20.20;83.50;;;;;;5020141;28;20182;-71
2023/07/24 04:28:46;;;;;;;4.07;3.08;;;20.10;83.30;;;;;;5027235;28;20188;-71
2023/07/24 04:31:12;;;;;;;3.42;3.13;;;20.10;83.20;;;;;;5028455;28;20208;-71
2023/07/24 04:33:38;;;;;;;4.10;3.28;;;20.10;83.10;;;;;;5026899;28;20715;-72
2023/07/24 04:36:04;;;;;;;6.35;3.45;;;20.20;83.10;;;;;;5028559;28;20180;-71
2023/07/24 04:38:30;;;;;;;3.67;3.00;;;20.20;83.20;;;;;;5060463;28;20221;-71
2023/07/24 04:40:56;;;;;;;4.13;3.80;;;20.20;83.20;;;;;;5028707;28;20189;-71
2023/07/24 04:43:21;;;;;;;4.28;3.35;;;20.20;83.20;;;;;;5027630;28;20646;-73
2023/07/24 04:45:47;;;;;;;3.85;3.35;;;20.30;83.30;;;;;;5033088;28;20180;-73
2023/07/24 04:48:12;;;;;;;4.25;3.42;;;20.30;83.20;;;;;;5032361;28;20204;-74
2023/07/24 04:50:38;;;;;;;4.03;3.72;;;20.40;82.60;;;;;;5038359;28;20227;-74
2023/07/24 04:53:04;;;;;;;6.53;4.28;;;20.40;81.90;;;;;;5030796;28;20182;-74
2023/07/24 04:55:29;;;;;;;4.13;3.72;;;20.50;81.80;;;;;;5038868;28;20187;-73
2023/07/24 04:57:55;;;;;;;4.28;3.72;;;20.50;81.80;;;;;;5031579;28;20282;-74
2023/07/24 05:00:21;;;;;;;6.22;3.55;;;20.60;82.00;;;;;;5031631;28;20180;-74
2023/07/24 05:02:46;;;;;;;4.00;3.60;;;20.60;81.70;;;;;;5030346;28;20195;-74
2023/07/24 05:05:12;;;;;;;3.50;3.08;;;20.70;81.80;;;;;;5023299;28;20252;-74
2023/07/24 05:07:38;;;;;;;6.70;4.40;;;20.70;81.60;;;;;;5018413;28;20547;-73
2023/07/24 05:10:04;;;;;;;4.95;3.80;;;20.80;81.30;;;;;;5025405;28;20212;-73
2023/07/24 05:12:29;;;;;;;7.20;3.83;;;20.80;81.30;;;;;;5025361;28;20237;-72
2023/07/24 05:14:55;;;;;;;5.40;4.25;;;20.90;81.20;;;;;;5024352;28;20206;-73
2023/07/24 05:17:21;;;;;;;4.80;3.80;;;20.90;81.20;;;;;;5026798;28;20184;-73
2023/07/24 05:19:55;;;;;;;5.00;4.43;;;20.90;81.10;;;;;;5027582;28;20188;-73
2023/07/24 05:22:21;;;;;;;4.05;3.65;;;21.00;80.60;;;;;;5029265;28;20183;-73
2023/07/24 05:24:46;;;;;;;5.95;3.42;;;21.00;81.30;;;;;;5021646;28;20172;-73
2023/07/24 05:27:12;;;;;;;5.10;4.10;;;21.10;81.10;;;;;;5031166;28;20187;-77
2023/07/24 05:29:38;;;;;;;4.03;3.65;;;21.20;81.00;;;;;;5023553;28;20678;-73
2023/07/24 05:32:04;;;;;;;4.25;3.60;;;21.20;81.10;;;;;;5030809;28;20245;-73
2023/07/24 05:34:29;;;;;;;6.50;4.07;;;21.30;80.80;;;;;;5032140;28;20225;-72
2023/07/24 05:36:55;;;;;;;3.67;3.38;;;21.30;80.40;;;;;;5028166;28;20173;-73
2023/07/24 05:39:21;;;;;;;4.78;3.95;;;21.40;80.20;;;;;;5026522;28;20631;-73
2023/07/24 05:41:48;;;;;;;7.82;4.00;;;21.40;80.20;;;;;;5035838;28;20276;-73
2023/07/24 05:44:14;;;;;;;4.47;3.65;;;21.40;80.40;;;;;;5020199;28;20185;-73
2023/07/24 05:46:39;;;;;;;4.50;3.88;;;21.50;80.20;;;;;;5030454;28;20280;-73
2023/07/24 05:49:05;;;;;;;3.58;3.33;;;21.50;80.50;;;;;;5030094;28;20579;-71
2023/07/24 05:54:15;;;;;;;5.00;4.55;;;21.70;80.00;;;;;;5019110;28;20194;-69
2023/07/24 05:56:40;;;;;;;7.45;4.53;;;21.60;79.10;;;;;;5032045;28;20294;-69
2023/07/24 05:59:06;;;;;;;6.00;4.38;;;21.70;79.00;;;;;;5027789;28;20671;-70
2023/07/24 06:01:32;;;;;;;8.05;4.80;;;21.80;78.80;;;;;;5028872;28;20211;-69
2023/07/24 06:03:57;;;;;;;9.38;5.60;;;21.90;78.80;;;;;;5030247;28;20649;-70
2023/07/24 06:06:23;;;;;;;8.65;4.43;;;21.90;78.70;;;;;;5026725;28;20755;-71
2023/07/24 06:08:50;;;;;;;5.68;4.30;;;22.00;78.70;;;;;;5026606;28;20333;-70
2023/07/24 06:11:16;;;;;;;9.32;4.63;;;22.00;78.60;;;;;;5027948;28;20203;-71
2023/07/24 06:13:42;;;;;;;8.25;5.22;;;22.10;78.80;;;;;;5029592;28;20271;-70
2023/07/24 06:16:08;;;;;;;8.45;4.63;;;22.20;78.40;;;;;;5031340;28;20709;-74
2023/07/24 06:18:34;;;;;;;3.67;3.38;;;22.20;78.40;;;;;;5028107;28;20211;-74
2023/07/24 06:21:00;;;;;;;4.90;3.58;;;22.30;78.10;;;;;;5030046;28;20253;-73
2023/07/24 06:23:26;;;;;;;6.70;4.53;;;22.40;78.20;;;;;;5027703;28;20188;-72
2023/07/24 06:25:52;;;;;;;4.32;3.92;;;22.50;77.90;;;;;;5030984;28;20185;-73
2023/07/24 06:28:18;;;;;;;6.75;4.13;;;22.50;78.00;;;;;;5026569;28;20187;-72
2023/07/24 06:30:44;;;;;;;3.35;3.08;;;22.60;77.90;;;;;;5032904;28;20204;-72
2023/07/24 06:33:09;;;;;;;3.95;3.58;;;22.70;78.20;;;;;;5033587;28;20673;-72
2023/07/24 06:35:35;;;;;;;6.32;3.83;;;22.80;78.00;;;;;;5032155;28;20176;-72
2023/07/24 06:38:01;;;;;;;6.60;3.65;;;22.80;78.00;;;;;;5032273;28;20179;-71
2023/07/24 06:40:27;;;;;;;3.90;3.45;;;22.90;77.80;;;;;;5032484;28;20184;-72
2023/07/24 06:42:52;;;;;;;4.75;3.17;;;22.90;77.60;;;;;;5029991;28;20176;-71
2023/07/24 06:45:18;;;;;;;5.40;3.50;;;23.00;77.40;;;;;;5031628;28;20238;-74
2023/07/24 06:47:44;;;;;;;5.78;3.03;;;23.10;77.20;;;;;;5030543;28;20188;-73
2023/07/24 06:50:09;;;;;;;10.18;3.05;;;23.10;76.90;;;;;;5032166;28;20204;-73
2023/07/24 06:52:35;;;;;;;3.40;2.90;;;23.20;77.00;;;;;;5032105;28;20177;-72
2023/07/24 06:55:01;;;;;;;4.40;3.08;;;23.20;77.40;;;;;;5032519;28;20173;-72
2023/07/24 06:57:27;;;;;;;3.75;3.08;;;23.30;76.60;;;;;;5034976;28;20238;-71
2023/07/24 06:59:52;;;;;;;3.10;2.78;;;23.40;76.50;;;;;;5036093;28;20188;-73
2023/07/24 07:02:18;;;;;;;3.58;3.28;;;23.40;76.90;;;;;;5032159;28;20179;-73
2023/07/24 07:04:44;;;;;;;3.50;3.20;;;23.50;76.80;;;;;;5032159;28;20298;-73
2023/07/24 07:07:10;;;;;;;3.83;2.97;;;23.60;76.00;;;;;;5024412;28;20180;-73
2023/07/24 07:09:35;;;;;;;3.80;3.15;;;23.60;76.40;;;;;;5024826;28;20226;-73
2023/07/24 07:12:01;;;;;;;3.15;2.95;;;23.60;75.80;;;;;;5022368;28;20621;-73
2023/07/24 07:14:27;;;;;;;4.40;3.05;;;23.70;76.00;;;;;;5031566;28;21045;-73
2023/07/24 07:16:52;;;;;;;4.15;3.38;;;23.70;75.90;;;;;;5027004;28;20181;-72
2023/07/24 07:19:18;;;;;;;3.42;3.13;;;23.80;76.30;;;;;;5019480;28;20173;-72
2023/07/24 07:21:43;;;;;;;4.93;3.75;;;23.80;75.90;;;;;;5031655;28;20184;-72
2023/07/24 07:24:09;;;;;;;3.10;2.88;;;23.90;75.50;;;;;;5031764;28;20615;-71
2023/07/24 07:26:35;;;;;;;4.95;3.20;;;24.00;75.70;;;;;;5031649;28;20251;-72
2023/07/24 07:31:44;;;;;;;3.22;2.92;;;24.10;74.90;;;;;;5031441;28;20215;-72
2023/07/24 07:34:10;;;;;;;7.78;3.72;;;24.20;74.90;;;;;;5031555;28;20180;-72
2023/07/24 07:36:36;;;;;;;6.05;3.15;;;24.30;74.40;;;;;;5031100;28;20175;-72
2023/07/24 07:39:02;;;;;;;5.18;4.18;;;24.30;74.50;;;;;;5027527;28;20183;-72
2023/07/24 07:41:28;;;;;;;4.10;3.67;;;24.40;73.90;;;;;;5031100;28;20176;-72
2023/07/24 07:43:54;;;;;;;3.78;3.55;;;24.50;74.20;;;;;;5031457;28;20268;-72
2023/07/24 07:46:20;;;;;;;5.15;3.40;;;24.60;74.00;;;;;;5019297;28;20283;-72
2023/07/24 07:48:49;;;;;;;3.92;3.38;;;24.70;74.00;;;;;;5031434;28;20207;-72
2023/07/24 07:51:14;;;;;;;3.75;3.40;;;24.70;73.90;;;;;;5029420;28;20602;-71
2023/07/24 07:53:40;;;;;;;4.18;3.40;;;24.80;73.90;;;;;;5031135;28;20184;-72
2023/07/24 07:56:06;;;;;;;6.88;3.65;;;24.90;73.10;;;;;;5030915;28;20269;-73
2023/07/24 07:58:32;;;;;;;8.25;3.65;;;25.00;73.20;;;;;;5031269;28;20193;-73
2023/07/24 08:00:58;;;;;;;7.30;3.42;;;25.00;72.80;;;;;;5030157;28;20752;-73
2023/07/24 08:03:23;;;;;;;4.07;3.40;;;25.10;72.20;;;;;;5031057;28;20180;-73
2023/07/24 08:05:49;;;;;;;5.13;3.90;;;25.20;72.50;;;;;;5030937;28;20211;-71
2023/07/24 08:08:15;;;;;;;5.35;4.82;;;25.20;72.10;;;;;;5024731;28;20188;-71
2023/07/24 08:10:40;;;;;;;5.20;4.22;;;25.10;71.20;;;;;;5027749;28;20215;-73
2023/07/24 08:13:07;;;;;;;12.27;4.40;;;25.00;71.80;;;;;;5030962;28;20184;-71
2023/07/24 08:15:37;;;;;;;4.30;3.90;;;25.10;71.40;;;;;;5029563;28;20564;-72
2023/07/24 08:18:06;;;;;;;4.57;3.97;;;25.20;72.20;;;;;;5030756;28;20927;-72
2023/07/24 08:20:35;;;;;;;6.30;3.65;;;25.20;71.00;;;;;;5030065;28;20271;-72
2023/07/24 08:23:00;;;;;;;4.82;3.58;;;25.20;71.10;;;;;;5020806;28;20570;-70
2023/07/24 08:25:26;;;;;;;3.97;3.58;;;25.30;70.80;;;;;;5019552;28;20239;-71
2023/07/24 08:27:52;;;;;;;6.13;4.65;;;25.50;70.90;;;;;;5029447;28;20192;-70
2023/07/24 08:30:18;;;;;;;5.88;4.43;;;25.60;70.90;;;;;;5034989;28;20262;-71
2023/07/24 08:32:44;;;;;;;6.93;4.70;;;25.70;69.50;;;;;;5038894;28;20210;-71
2023/07/24 08:35:09;;;;;;;5.32;3.78;;;25.70;70.30;;;;;;5029858;28;20204;-71
2023/07/24 08:37:35;;;;;;;9.52;4.40;;;25.70;68.70;;;;;;5019989;28;20215;-71
2023/07/24 08:40:01;;;;;;;4.97;3.67;;;25.80;68.80;;;;;;5020991;28;20180;-71
2023/07/24 08:42:28;;;;;;;5.75;4.03;;;25.90;69.20;;;;;;5027966;28;20180;-72
2023/07/24 08:44:55;;;;;;;4.95;4.13;;;26.10;69.20;;;;;;5026253;28;20188;-72
2023/07/24 08:47:22;;;;;;;5.00;3.92;;;26.20;67.90;;;;;;5031639;28;20688;-72
2023/07/24 08:49:49;;;;;;;7.88;4.40;;;26.30;68.00;;;;;;5029959;28;20180;-72
2023/07/24 08:52:15;;;;;;;6.68;4.82;;;26.40;67.40;;;;;;5030036;28;20185;-72
2023/07/24 08:54:42;;;;;;;6.07;4.13;;;26.50;68.20;;;;;;5028918;28;20192;-72
2023/07/24 08:57:08;;;;;;;5.63;4.10;;;26.70;68.70;;;;;;5028736;28;20196;-72
2023/07/24 08:59:34;;;;;;;4.63;4.22;;;26.90;68.50;;;;;;5029044;28;20661;-73
2023/07/24 09:02:00;;;;;;;9.23;4.82;;;27.00;68.30;;;;;;5027841;28;20572;-72
2023/07/24 09:04:25;;;;;;;7.18;4.18;;;27.10;68.30;;;;;;5025384;28;20189;-72
2023/07/24 09:06:51;;;;;;;10.48;4.63;;;27.30;67.70;;;;;;5032633;28;20274;-72
2023/07/24 09:09:17;;;;;;;7.93;4.53;;;27.40;67.00;;;;;;5026440;28;20168;-71
2023/07/24 09:11:50;;;;;;;8.30;4.97;;;27.60;66.40;;;;;;5026223;28;20216;-72
2023/07/24 09:14:27;;;;;;;5.68;4.45;;;27.70;66.80;;;;;;5021381;28;20818;-72
2023/07/24 09:17:07;;;;;;;6.78;4.32;;;27.90;66.30;;;;;;5025776;28;20184;-72
2023/07/24 09:19:33;;;;;;;5.15;3.97;;;28.00;65.80;;;;;;5025395;28;20246;-72
2023/07/24 09:22:15;;;;;;;5.93;4.60;;;28.20;65.80;;;;;;5025796;28;20196;-72
2023/07/24 09:24:52;;;;;;;5.45;3.72;;;28.20;64.20;;;;;;5024661;28;20183;-73
2023/07/24 09:27:18;;;;;;;7.15;4.40;;;28.40;64.70;;;;;;5025840;28;20245;-72
2023/07/24 09:29:43;;;;;;;10.68;4.75;;;28.50;63.90;;;;;;5022167;28;20183;-72
2023/07/24 09:32:23;;;;;;;5.68;4.32;;;28.60;64.10;;;;;;5028054;28;20215;-75
2023/07/24 09:34:54;;;;;;;5.10;4.57;;;28.70;62.90;;;;;;5027232;28;20242;-75
2023/07/24 09:37:37;;;;;;;7.70;4.57;;;28.90;63.10;;;;;;5027865;28;20259;-75
2023/07/24 09:40:06;;;;;;;10.48;4.95;;;29.00;63.00;;;;;;5029709;28;20773;-75
2023/07/24 09:42:35;;;;;;;5.80;4.10;;;29.20;62.20;;;;;;5028325;28;20702;-74
2023/07/24 09:45:01;;;;;;;7.07;4.63;;;29.30;62.20;;;;;;5028879;28;20172;-75
2023/07/24 09:47:27;;;;;;;7.30;4.70;;;29.50;62.30;;;;;;5029477;28;20177;-74
2023/07/24 09:49:55;;;;;;;4.40;4.00;;;29.60;62.20;;;;;;5029632;28;20183;-77
2023/07/24 09:52:21;;;;;;;6.35;4.05;;;29.70;61.90;;;;;;5029345;28;20176;-77
2023/07/24 09:54:56;;;;;;;4.35;3.97;;;30.00;61.40;;;;;;5061331;28;20622;-77
2023/07/24 09:57:23;;;;;;;7.05;4.22;;;30.20;61.80;;;;;;5027797;28;20218;-76
2023/07/24 09:59:51;;;;;;;5.18;4.43;;;30.40;59.20;;;;;;5027120;28;20180;-77
2023/07/24 10:02:17;;;;;;;4.40;4.00;;;30.60;59.70;;;;;;5027763;28;20168;-76
2023/07/24 10:04:45;;;;;;;7.07;4.30;;;30.80;59.10;;;;;;5033102;28;20186;-77
2023/07/24 10:07:11;;;;;;;7.95;4.18;;;31.10;58.50;;;;;;5029140;28;20184;-76
2023/07/24 10:09:37;;;;;;;19.05;6.00;;;31.30;59.30;;;;;;5019516;28;20198;-76
2023/07/24 10:12:03;;;;;;;8.50;4.85;;;31.50;56.50;;;;;;5022484;28;20243;-76
2023/07/24 10:14:30;;;;;;;5.40;4.68;;;31.80;56.40;;;;;;5029559;28;20206;-76
2023/07/24 10:16:57;;;;;;;4.07;3.83;;;32.00;56.30;;;;;;5026196;28;20796;-76
2023/07/24 10:19:22;;;;;;;7.07;4.93;;;32.40;56.10;;;;;;5031786;28;20736;-77
2023/07/24 10:21:50;;;;;;;5.95;4.72;;;32.70;54.90;;;;;;5033358;28;20263;-77
2023/07/24 10:24:16;;;;;;;8.52;4.72;;;33.10;56.10;;;;;;5031113;28;20183;-77
2023/07/24 10:26:42;;;;;;;8.27;4.57;;;33.50;56.00;;;;;;5027111;28;20179;-76
2023/07/24 10:29:09;;;;;;;6.47;4.78;;;34.00;54.90;;;;;;5025149;28;20579;-76
2023/07/24 10:31:35;;;;;;;4.47;3.88;;;34.40;54.10;;;;;;5033375;28;20684;-77
2023/07/24 10:34:07;;;;;;;8.70;4.60;;;34.90;52.80;;;;;;5029708;28;20206;-72
2023/07/24 10:36:35;;;;;;;7.15;4.93;;;35.30;51.40;;;;;;5022177;28;20179;-73
2023/07/24 10:39:02;;;;;;;8.85;5.22;;;35.90;51.60;;;;;;5027141;28;20603;-73
2023/07/24 10:41:37;;;;;;;5.13;4.15;;;36.20;52.30;;;;;;5025978;28;20184;-73
2023/07/24 10:44:03;;;;;;;7.20;4.55;;;36.80;51.80;;;;;;5028515;28;20191;-73
2023/07/24 10:46:40;;;;;;;6.90;5.25;;;36.90;50.80;;;;;;5026316;28;20219;-73
2023/07/24 10:49:08;;;;;;;10.20;4.82;;;37.10;52.20;;;;;;5024848;28;20182;-73
2023/07/24 10:51:37;;;;;;;5.00;3.50;;;37.30;51.50;;;;;;5029266;28;20265;-73
2023/07/24 10:54:03;;;;;;;6.05;3.55;;;37.30;48.30;;;;;;5028991;28;20194;-73
2023/07/24 10:56:29;;;;;;;7.97;3.33;;;37.40;50.90;;;;;;5026626;28;20164;-73
2023/07/24 10:58:55;;;;;;;3.83;3.10;;;37.30;50.00;;;;;;5030160;28;20172;-73
2023/07/24 11:01:21;;;;;;;3.55;3.25;;;37.20;47.80;;;;;;5020627;28;20553;-73
2023/07/24 11:03:48;;;;;;;4.97;3.38;;;37.30;47.50;;;;;;5028834;28;20183;-73
2023/07/24 11:06:16;;;;;;;6.05;3.38;;;37.70;46.80;;;;;;5032133;28;20179;-72
2023/07/24 11:08:42;;;;;;;4.18;3.50;;;38.00;45.90;;;;;;5030834;28;20206;-73
2023/07/24 11:11:08;;;;;;;4.18;2.67;;;38.10;46.30;;;;;;5028958;28;20207;-72
2023/07/24 11:13:34;;;;;;;3.45;2.92;;;38.20;46.10;;;;;;5024498;28;20180;-73
2023/07/24 11:16:08;;;;;;;3.70;3.33;;;38.30;46.70;;;;;;5031690;28;20188;-73
2023/07/24 11:18:45;;;;;;;3.83;3.53;;;38.50;46.30;;;;;;5025127;28;20187;-72
2023/07/24 11:21:12;;;;;;;6.97;3.95;;;38.20;47.10;;;;;;5026381;28;20179;-72
2023/07/24 11:23:37;;;;;;;4.18;3.88;;;37.90;49.20;;;;;;5021767;28;20183;-72
2023/07/24 11:26:05;;;;;;;3.30;3.10;;;37.80;47.20;;;;;;5027325;28;20573;-73
2023/07/24 11:28:39;;;;;;;6.35;3.65;;;37.80;47.50;;;;;;5022178;28;20233;-72
2023/07/24 11:31:05;;;;;;;6.68;2.85;;;38.20;47.30;;;;;;5026280;28;20759;-72
2023/07/24 11:33:31;;;;;;;3.45;3.30;;;38.50;46.40;;;;;;5029844;28;20192;-73
2023/07/24 11:35:57;;;;;;;4.05;3.72;;;38.80;47.50;;;;;;5034469;28;20707;-73
2023/07/24 11:38:23;;;;;;;3.70;3.22;;;38.90;46.90;;;;;;5034777;28;20178;-71
2023/07/24 11:40:50;;;;;;;4.57;4.22;;;38.40;47.40;;;;;;5035616;28;20180;-74
2023/07/24 11:43:20;;;;;;;5.03;3.92;;;38.20;47.60;;;;;;5032407;28;20183;-73
2023/07/24 11:45:53;;;;;;;8.13;4.03;;;37.90;50.10;;;;;;5035361;28;20286;-73
2023/07/24 11:48:23;;;;;;;4.95;3.85;;;37.90;48.50;;;;;;5029143;28;20268;-72
2023/07/24 11:50:50;;;;;;;4.20;3.80;;;38.10;49.80;;;;;;5024171;28;20247;-72
2023/07/24 11:53:30;;;;;;;6.47;4.40;;;38.10;47.60;;;;;;5021707;28;20188;-72
2023/07/24 11:55:57;;;;;;;7.78;3.63;;;37.80;49.10;;;;;;5029726;28;20384;-74
2023/07/24 11:58:26;;;;;;;5.18;4.70;;;37.60;50.00;;;;;;5031564;28;20255;-72
2023/07/24 12:00:53;;;;;;;4.88;4.47;;;37.60;52.30;;;;;;5036375;28;20214;-71
2023/07/24 12:03:25;;;;;;;6.03;3.83;;;37.40;48.60;;;;;;5029761;28;20192;-72
2023/07/24 12:05:52;;;;;;;4.95;3.90;;;37.40;50.60;;;;;;5039906;28;20696;-73
2023/07/24 12:08:35;;;;;;;4.47;4.18;;;37.40;48.80;;;;;;5027499;28;20568;-73
2023/07/24 12:11:01;;;;;;;4.88;4.03;;;37.40;50.90;;;;;;5022049;28;20212;-72
2023/07/24 12:13:28;;;;;;;4.20;3.60;;;37.70;48.90;;;;;;5026820;28;20202;-73
2023/07/24 12:15:54;;;;;;;5.63;4.15;;;38.40;48.80;;;;;;5021889;28;20167;-73
2023/07/24 12:18:19;;;;;;;6.13;3.67;;;39.10;47.30;;;;;;5025344;28;20212;-75
2023/07/24 12:20:45;;;;;;;4.57;3.72;;;39.80;48.50;;;;;;5029910;28;20187;-74
2023/07/24 12:23:11;;;;;;;5.00;4.20;;;40.80;47.30;;;;;;5028968;28;20237;-74
2023/07/24 12:25:36;;;;;;;6.55;4.43;;;41.30;46.60;;;;;;5022274;28;20183;-74
2023/07/24 12:28:02;;;;;;;6.97;4.07;;;41.60;44.80;;;;;;5024477;28;20172;-74
2023/07/24 12:30:28;;;;;;;4.32;3.80;;;41.40;48.00;;;;;;5028751;28;20222;-74
2023/07/24 12:32:53;;;;;;;4.55;4.28;;;41.50;46.40;;;;;;5056413;28;20180;-75
2023/07/24 12:35:19;;;;;;;11.25;4.70;;;41.00;46.60;;;;;;5031525;28;20179;-74
2023/07/24 12:37:45;;;;;;;5.35;4.85;;;40.60;45.20;;;;;;5032853;28;20613;-75
2023/07/24 12:40:12;;;;;;;10.07;3.58;;;40.50;45.70;;;;;;5035160;28;20204;-73
2023/07/24 12:42:38;;;;;;;5.45;4.95;;;40.70;46.40;;;;;;5034259;28;20190;-73
2023/07/24 12:45:04;;;;;;;15.77;4.85;;;41.30;43.80;;;;;;5036002;28;20188;-74
2023/07/24 12:47:31;;;;;;;11.15;4.80;;;41.70;48.30;;;;;;5026060;28;20176;-74
2023/07/24 12:49:58;;;;;;;9.38;4.93;;;42.20;46.70;;;;;;5022870;28;20172;-74